createdAt,value
2023-05-18T00:00:05.979Z,11.00
2023-05-18T00:02:52.870Z,11.00
2023-05-18T00:05:34.836Z,11.00
2023-05-18T00:08:19.768Z,11.00
2023-05-18T00:10:57.582Z,11.00
2023-05-18T00:13:42.002Z,10.90
2023-05-18T00:16:35.116Z,10.90
2023-05-18T00:19:17.577Z,10.90
2023-05-18T00:22:02.586Z,10.90
2023-05-18T00:24:48.734Z,10.80
2023-05-18T00:27:26.972Z,10.80
2023-05-18T00:30:24.337Z,10.90
2023-05-18T00:33:20.410Z,10.90
2023-05-18T00:36:04.271Z,10.90
2023-05-18T00:39:16.592Z,10.90
2023-05-18T00:42:05.345Z,10.90
2023-05-18T00:44:51.000Z,10.90
2023-05-18T00:47:48.284Z,10.90
2023-05-18T00:50:35.707Z,10.90
2023-05-18T00:53:33.139Z,10.90
2023-05-18T00:56:28.479Z,10.90
2023-05-18T00:59:10.576Z,10.90
2023-05-18T01:01:56.618Z,10.90
2023-05-18T01:04:38.563Z,10.90
2023-05-18T01:07:11.564Z,10.90
2023-05-18T01:09:56.652Z,10.90
2023-05-18T01:12:53.106Z,10.90
2023-05-18T01:15:43.865Z,11.00
2023-05-18T01:19:00.981Z,11.00
2023-05-18T01:22:03.206Z,11.00
2023-05-18T01:24:48.175Z,11.00
2023-05-18T01:27:39.121Z,11.00
2023-05-18T01:30:31.572Z,11.00
2023-05-18T01:33:27.177Z,11.00
2023-05-18T01:36:27.360Z,11.10
2023-05-18T01:39:07.845Z,11.10
2023-05-18T01:41:53.582Z,11.10
2023-05-18T01:44:44.644Z,11.10
2023-05-18T01:47:36.230Z,11.10
2023-05-18T01:50:26.738Z,11.10
2023-05-18T01:53:23.956Z,11.10
2023-05-18T01:56:06.420Z,11.10
2023-05-18T01:58:50.071Z,11.10
2023-05-18T02:01:45.915Z,11.10
2023-05-18T02:04:40.438Z,11.10
2023-05-18T02:07:14.749Z,11.10
2023-05-18T02:10:11.890Z,11.10
2023-05-18T02:12:54.352Z,11.10
2023-05-18T02:15:54.116Z,11.10
2023-05-18T02:18:47.989Z,11.00
2023-05-18T02:21:49.254Z,11.00
2023-05-18T02:24:22.901Z,10.90
2023-05-18T02:26:57.072Z,10.90
2023-05-18T02:29:48.116Z,10.80
2023-05-18T02:32:48.200Z,10.70
2023-05-18T02:35:44.632Z,10.70
2023-05-18T02:38:34.705Z,10.60
2023-05-18T02:41:28.598Z,10.50
2023-05-18T02:44:06.712Z,10.40
2023-05-18T02:46:53.295Z,10.40
2023-05-18T02:49:37.553Z,10.30
2023-05-18T02:52:30.472Z,10.20
2023-05-18T02:55:28.945Z,10.10
2023-05-18T02:58:14.035Z,10.10
2023-05-18T03:01:08.100Z,10.00
2023-05-18T03:04:04.889Z,9.90
2023-05-18T03:06:51.636Z,9.80
2023-05-18T03:09:46.022Z,9.80
2023-05-18T03:12:17.733Z,9.70
2023-05-18T03:15:14.532Z,9.70
2023-05-18T03:18:00.249Z,9.60
2023-05-18T03:20:43.152Z,9.60
2023-05-18T03:23:39.354Z,9.50
2023-05-18T03:26:54.899Z,9.50
2023-05-18T03:29:51.801Z,9.50
2023-05-18T03:32:32.295Z,9.50
2023-05-18T03:35:13.351Z,9.50
2023-05-18T03:38:05.231Z,9.50
2023-05-18T03:40:51.782Z,9.60
2023-05-18T03:43:32.865Z,9.60
2023-05-18T03:46:26.454Z,9.70
2023-05-18T03:49:08.180Z,9.70
2023-05-18T03:52:06.064Z,9.80
2023-05-18T03:54:37.773Z,9.90
2023-05-18T03:57:29.977Z,9.90
2023-05-18T04:00:14.795Z,10.00
2023-05-18T04:03:07.618Z,10.00
2023-05-18T04:05:43.822Z,10.00
2023-05-18T04:08:24.663Z,10.10
2023-05-18T04:10:56.404Z,10.10
2023-05-18T04:13:31.774Z,10.10
2023-05-18T04:16:22.367Z,10.00
2023-05-18T04:19:10.872Z,10.00
2023-05-18T04:21:49.837Z,10.00
2023-05-18T04:24:31.763Z,10.00
2023-05-18T04:27:19.659Z,10.00
2023-05-18T04:30:06.358Z,10.00
2023-05-18T04:33:00.505Z,10.00
2023-05-18T04:35:36.530Z,10.00
2023-05-18T04:38:24.758Z,9.90
2023-05-18T04:41:16.447Z,9.90
2023-05-18T04:44:06.978Z,10.00
2023-05-18T04:46:44.177Z,10.00
2023-05-18T04:49:38.996Z,10.10
2023-05-18T04:52:11.952Z,10.10
2023-05-18T04:55:07.583Z,10.20
2023-05-18T04:57:45.488Z,10.20
2023-05-18T05:00:34.810Z,10.30
2023-05-18T05:03:07.551Z,10.40
2023-05-18T05:06:31.758Z,10.40
2023-05-18T05:09:21.042Z,10.50
2023-05-18T05:12:03.124Z,10.50
2023-05-18T05:15:00.244Z,10.60
2023-05-18T05:17:43.214Z,10.70
2023-05-18T05:20:41.478Z,10.70
2023-05-18T05:23:41.617Z,10.80
2023-05-18T05:26:13.360Z,10.90
2023-05-18T05:28:55.305Z,10.90
2023-05-18T05:31:26.366Z,11.00
2023-05-18T05:34:13.860Z,11.00
2023-05-18T05:37:08.970Z,11.10
2023-05-18T05:40:20.627Z,11.10
2023-05-18T05:42:57.251Z,11.20
2023-05-18T05:45:44.100Z,11.20
2023-05-18T05:48:22.130Z,11.30
2023-05-18T05:50:57.132Z,11.30
2023-05-18T05:53:43.600Z,11.40
2023-05-18T05:56:38.271Z,11.50
2023-05-18T05:59:31.608Z,11.50
2023-05-18T06:02:02.598Z,11.60
2023-05-18T06:04:41.076Z,11.60
2023-05-18T06:07:23.257Z,11.60
2023-05-18T06:10:11.262Z,11.70
2023-05-18T06:13:24.021Z,11.70
2023-05-18T06:16:21.054Z,11.80
2023-05-18T06:19:15.571Z,11.90
2023-05-18T06:21:49.454Z,11.90
2023-05-18T06:24:26.191Z,12.00
2023-05-18T06:27:31.340Z,12.00
2023-05-18T06:30:48.457Z,12.10
2023-05-18T06:33:35.744Z,12.10
2023-05-18T06:36:18.357Z,12.20
2023-05-18T06:39:10.284Z,12.30
2023-05-18T06:42:01.173Z,12.30
2023-05-18T06:44:57.469Z,12.40
2023-05-18T06:48:00.633Z,12.50
2023-05-18T06:50:44.053Z,12.60
2023-05-18T06:53:34.334Z,12.70
2023-05-18T06:56:05.448Z,12.70
2023-05-18T06:58:49.328Z,12.80
2023-05-18T07:01:32.252Z,12.90
2023-05-18T07:04:26.907Z,13.00
2023-05-18T07:07:02.059Z,13.10
2023-05-18T07:09:57.540Z,13.20
2023-05-18T07:13:07.696Z,13.30
2023-05-18T07:15:42.145Z,13.40
2023-05-18T07:18:13.317Z,13.50
2023-05-18T07:20:50.682Z,13.50
2023-05-18T07:23:34.077Z,13.70
2023-05-18T07:26:12.449Z,13.70
2023-05-18T07:28:47.883Z,13.80
2023-05-18T07:31:43.066Z,13.90
2023-05-18T07:34:15.013Z,14.00
2023-05-18T07:37:13.449Z,14.10
2023-05-18T07:40:09.755Z,14.20
2023-05-18T07:42:55.338Z,14.30
2023-05-18T07:45:34.987Z,14.40
2023-05-18T07:48:17.185Z,14.50
2023-05-18T07:50:57.703Z,14.60
2023-05-18T07:53:50.135Z,14.70
2023-05-18T07:56:44.927Z,14.80
2023-05-18T07:59:34.927Z,14.90
2023-05-18T08:02:26.390Z,15.10
2023-05-18T08:05:14.215Z,15.20
2023-05-18T08:08:03.862Z,15.30
2023-05-18T08:10:55.646Z,15.40
2023-05-18T08:13:39.792Z,15.50
2023-05-18T08:16:13.798Z,15.60
2023-05-18T08:18:47.341Z,15.70
2023-05-18T08:21:21.626Z,15.70
2023-05-18T08:23:57.777Z,15.80
2023-05-18T08:26:48.727Z,15.90
2023-05-18T08:29:19.211Z,16.00
2023-05-18T08:31:53.761Z,16.00
2023-05-18T08:34:53.774Z,16.10
2023-05-18T08:38:06.150Z,16.20
2023-05-18T08:40:49.223Z,16.30
2023-05-18T08:43:50.817Z,16.40
2023-05-18T08:46:48.697Z,16.50
2023-05-18T08:49:33.709Z,16.60
2023-05-18T08:52:21.505Z,16.80
2023-05-18T08:55:10.131Z,16.90
2023-05-18T08:57:45.117Z,17.00
2023-05-18T09:00:27.321Z,17.10
2023-05-18T09:03:21.669Z,17.20
2023-05-18T09:06:01.268Z,17.30
2023-05-18T09:08:50.989Z,17.40
2023-05-18T09:11:34.422Z,17.50
2023-05-18T09:14:27.552Z,17.60
2023-05-18T09:17:43.659Z,17.70
2023-05-18T09:20:20.439Z,17.80
2023-05-18T09:23:17.702Z,17.80
2023-05-18T09:25:52.165Z,17.90
2023-05-18T09:28:52.595Z,18.00
2023-05-18T09:31:43.419Z,18.10
2023-05-18T09:34:52.779Z,18.20
2023-05-18T09:37:27.529Z,18.30
2023-05-18T09:40:08.059Z,18.40
2023-05-18T09:42:54.130Z,18.60
2023-05-18T09:45:34.658Z,18.70
2023-05-18T09:48:22.133Z,18.80
2023-05-18T09:51:01.923Z,18.90
2023-05-18T09:53:56.253Z,19.00
2023-05-18T09:56:48.130Z,19.00
2023-05-18T09:59:27.180Z,19.10
2023-05-18T10:02:26.402Z,19.20
2023-05-18T10:05:28.240Z,19.30
2023-05-18T10:08:38.909Z,19.40
2023-05-18T10:11:41.511Z,19.50
2023-05-18T10:14:15.172Z,19.50
2023-05-18T10:16:47.037Z,19.60
2023-05-18T10:19:28.456Z,19.60
2023-05-18T10:22:14.296Z,19.70
2023-05-18T10:25:14.944Z,19.70
2023-05-18T10:28:19.296Z,19.70
2023-05-18T10:31:15.272Z,19.80
2023-05-18T10:33:49.222Z,19.80
2023-05-18T10:36:43.244Z,19.80
2023-05-18T10:39:40.155Z,19.90
2023-05-18T10:42:25.847Z,20.00
2023-05-18T10:45:18.439Z,20.10
2023-05-18T10:48:00.348Z,20.30
2023-05-18T10:50:59.554Z,20.40
2023-05-18T10:53:50.853Z,20.50
2023-05-18T10:56:38.072Z,20.60
2023-05-18T10:59:48.612Z,20.80
2023-05-18T11:02:35.497Z,20.90
2023-05-18T11:05:15.572Z,20.90
2023-05-18T11:07:52.876Z,21.00
2023-05-18T11:10:40.123Z,21.10
2023-05-18T11:13:27.384Z,21.20
2023-05-18T11:16:43.923Z,21.20
2023-05-18T11:19:42.531Z,21.20
2023-05-18T11:22:22.712Z,21.10
2023-05-18T11:24:57.038Z,21.00
2023-05-18T11:27:33.522Z,21.00
2023-05-18T11:30:57.044Z,21.00
2023-05-18T11:33:33.365Z,21.10
2023-05-18T11:36:29.319Z,21.10
2023-05-18T11:39:23.286Z,21.20
2023-05-18T11:42:12.014Z,21.30
2023-05-18T11:44:59.266Z,21.30
2023-05-18T11:47:34.720Z,21.40
2023-05-18T11:50:29.997Z,21.50
2023-05-18T11:53:21.816Z,21.60
2023-05-18T11:56:17.101Z,21.90
2023-05-18T11:59:21.768Z,22.00
2023-05-18T12:02:20.719Z,22.10
2023-05-18T12:05:18.338Z,22.20
2023-05-18T12:08:11.861Z,22.30
2023-05-18T12:10:48.296Z,22.30
2023-05-18T12:13:35.159Z,22.20
2023-05-18T12:16:19.858Z,22.20
2023-05-18T12:18:54.942Z,22.20
2023-05-18T12:21:37.872Z,22.10
2023-05-18T12:24:23.631Z,22.10
2023-05-18T12:27:12.583Z,22.20
2023-05-18T12:29:55.227Z,22.30
2023-05-18T12:32:48.146Z,22.40
2023-05-18T12:35:34.123Z,22.50
2023-05-18T12:38:15.103Z,22.70
2023-05-18T12:41:00.928Z,22.70
2023-05-18T12:43:59.126Z,22.70
2023-05-18T12:46:47.195Z,22.80
2023-05-18T12:49:22.943Z,22.90
2023-05-18T12:52:19.929Z,23.20
2023-05-18T12:55:06.150Z,23.50
2023-05-18T12:58:09.529Z,23.90
2023-05-18T13:00:53.931Z,24.30
2023-05-18T13:03:38.069Z,24.70
2023-05-18T13:06:19.037Z,25.10
2023-05-18T13:09:05.007Z,25.50
2023-05-18T13:12:06.216Z,26.00
2023-05-18T13:14:49.322Z,26.30
2023-05-18T13:17:25.972Z,26.70
2023-05-18T13:20:17.750Z,27.00
2023-05-18T13:23:06.208Z,27.30
2023-05-18T13:25:47.742Z,27.60
2023-05-18T13:28:24.191Z,27.90
2023-05-18T13:31:27.600Z,28.20
2023-05-18T13:34:16.800Z,28.50
2023-05-18T13:37:30.763Z,28.70
2023-05-18T13:40:01.553Z,28.70
2023-05-18T13:42:58.714Z,28.60
2023-05-18T13:45:39.944Z,28.50
2023-05-18T13:48:43.931Z,28.60
2023-05-18T13:51:35.285Z,28.90
2023-05-18T13:54:33.134Z,29.20
2023-05-18T13:57:32.755Z,29.40
2023-05-18T14:00:34.223Z,29.70
2023-05-18T14:03:43.965Z,29.90
2023-05-18T14:06:37.458Z,30.20
2023-05-18T14:09:33.725Z,30.40
2023-05-18T14:12:14.151Z,30.70
2023-05-18T14:14:45.310Z,30.90
2023-05-18T14:17:19.239Z,31.10
2023-05-18T14:20:30.603Z,31.20
2023-05-18T14:23:04.301Z,31.10
2023-05-18T14:25:44.040Z,30.70
2023-05-18T14:28:32.374Z,30.20
2023-05-18T14:31:12.799Z,29.80
2023-05-18T14:34:05.846Z,29.50
2023-05-18T14:36:55.922Z,29.60
2023-05-18T14:39:48.020Z,29.80
2023-05-18T14:42:34.467Z,30.10
2023-05-18T14:45:08.916Z,30.40
2023-05-18T14:47:49.929Z,30.70
2023-05-18T14:50:24.367Z,31.10
2023-05-18T14:53:42.842Z,31.40
2023-05-18T14:56:20.818Z,31.80
2023-05-18T14:58:51.657Z,32.20
2023-05-18T15:01:49.891Z,32.40
2023-05-18T15:04:38.773Z,32.70
2023-05-18T15:07:15.359Z,32.80
2023-05-18T15:09:52.445Z,33.00
2023-05-18T15:12:33.078Z,33.10
2023-05-18T15:15:17.087Z,33.10
2023-05-18T15:17:57.723Z,33.00
2023-05-18T15:20:48.496Z,33.00
2023-05-18T15:23:45.275Z,33.00
2023-05-18T15:27:02.125Z,33.10
2023-05-18T15:29:55.493Z,33.20
2023-05-18T15:32:51.994Z,33.30
2023-05-18T15:35:39.810Z,33.20
2023-05-18T15:38:23.762Z,33.20
2023-05-18T15:41:08.271Z,33.20
2023-05-18T15:44:06.947Z,33.30
2023-05-18T15:47:05.237Z,33.50
2023-05-18T15:49:58.775Z,33.70
2023-05-18T15:52:39.179Z,33.90
2023-05-18T15:55:25.723Z,33.70
2023-05-18T15:58:24.945Z,33.40
2023-05-18T16:01:34.990Z,32.90
2023-05-18T16:04:13.007Z,32.50
2023-05-18T16:06:49.225Z,32.50
2023-05-18T16:09:22.275Z,32.70
2023-05-18T16:12:10.516Z,32.90
2023-05-18T16:14:58.718Z,33.10
2023-05-18T16:17:37.415Z,33.00
2023-05-18T16:20:10.114Z,32.50
2023-05-18T16:22:53.909Z,32.00
2023-05-18T16:25:51.766Z,31.20
2023-05-18T16:28:42.550Z,30.70
2023-05-18T16:31:42.282Z,30.50
2023-05-18T16:34:39.269Z,30.60
2023-05-18T16:37:31.264Z,30.80
2023-05-18T16:40:22.900Z,31.00
2023-05-18T16:43:10.003Z,31.30
2023-05-18T16:45:47.285Z,31.50
2023-05-18T16:48:34.073Z,31.70
2023-05-18T16:51:11.110Z,31.60
2023-05-18T16:54:08.448Z,31.20
2023-05-18T16:56:49.699Z,30.90
2023-05-18T16:59:23.092Z,30.70
2023-05-18T17:02:18.928Z,30.60
2023-05-18T17:05:23.406Z,30.60
2023-05-18T17:08:06.549Z,30.60
2023-05-18T17:10:51.832Z,30.40
2023-05-18T17:13:37.945Z,30.00
2023-05-18T17:16:19.039Z,29.50
2023-05-18T17:18:58.132Z,29.00
2023-05-18T17:21:46.489Z,28.50
2023-05-18T17:24:26.330Z,28.00
2023-05-18T17:27:01.987Z,27.70
2023-05-18T17:29:42.449Z,27.70
2023-05-18T17:32:30.517Z,27.90
2023-05-18T17:35:16.874Z,28.00
2023-05-18T17:38:22.410Z,28.30
2023-05-18T17:41:08.135Z,28.50
2023-05-18T17:43:52.289Z,28.60
2023-05-18T17:46:28.551Z,28.60
2023-05-18T17:49:03.498Z,28.40
2023-05-18T17:51:52.072Z,28.10
2023-05-18T17:54:58.649Z,27.70
2023-05-18T17:57:43.870Z,27.10
2023-05-18T18:00:30.959Z,26.60
2023-05-18T18:03:29.081Z,26.00
2023-05-18T18:06:10.557Z,25.50
2023-05-18T18:09:05.675Z,25.00
2023-05-18T18:11:50.539Z,24.40
2023-05-18T18:14:47.707Z,23.90
2023-05-18T18:17:23.336Z,23.30
2023-05-18T18:19:56.868Z,22.80
2023-05-18T18:22:36.006Z,22.30
2023-05-18T18:25:14.623Z,21.90
2023-05-18T18:27:55.204Z,21.50
2023-05-18T18:30:33.733Z,21.10
2023-05-18T18:33:26.185Z,20.80
2023-05-18T18:36:08.024Z,20.40
2023-05-18T18:38:48.586Z,20.10
2023-05-18T18:41:21.825Z,19.70
2023-05-18T18:44:10.795Z,19.40
2023-05-18T18:47:23.947Z,19.10
2023-05-18T18:50:17.807Z,18.80
2023-05-18T18:53:07.985Z,18.50
2023-05-18T18:55:39.280Z,18.30
2023-05-18T18:58:29.689Z,18.10
2023-05-18T19:01:10.404Z,17.80
2023-05-18T19:04:07.946Z,17.60
2023-05-18T19:06:57.450Z,17.40
2023-05-18T19:09:52.372Z,17.20
2023-05-18T19:12:44.176Z,17.00
2023-05-18T19:15:44.890Z,16.80
2023-05-18T19:18:43.415Z,16.70
2023-05-18T19:21:25.894Z,16.50
2023-05-18T19:23:59.212Z,16.40
2023-05-18T19:26:44.761Z,16.20
2023-05-18T19:29:29.489Z,16.10
2023-05-18T19:32:08.960Z,16.00
2023-05-18T19:34:40.058Z,15.80
2023-05-18T19:37:34.757Z,15.70
2023-05-18T19:40:18.520Z,15.60
2023-05-18T19:42:53.594Z,15.40
2023-05-18T19:45:58.878Z,15.30
2023-05-18T19:48:37.599Z,15.20
2023-05-18T19:51:09.935Z,15.10
2023-05-18T19:54:03.901Z,15.00
2023-05-18T19:56:37.771Z,14.80
2023-05-18T19:59:29.774Z,14.80
2023-05-18T20:02:25.818Z,14.60
2023-05-18T20:05:00.800Z,14.50
2023-05-18T20:08:00.064Z,14.40
2023-05-18T20:11:13.019Z,14.30
2023-05-18T20:14:03.134Z,14.30
2023-05-18T20:16:39.947Z,14.20
2023-05-18T20:19:23.303Z,14.10
2023-05-18T20:22:11.383Z,14.00
2023-05-18T20:25:07.227Z,13.90
2023-05-18T20:28:41.871Z,13.90
2023-05-18T20:31:21.007Z,13.80
2023-05-18T20:34:08.307Z,13.70
2023-05-18T20:36:44.225Z,13.60
2023-05-18T20:39:33.908Z,13.50
2023-05-18T20:42:15.032Z,13.50
2023-05-18T20:45:27.646Z,13.40
2023-05-18T20:48:18.475Z,13.50
2023-05-18T20:50:58.144Z,13.30
2023-05-18T20:53:39.673Z,13.20
2023-05-18T20:57:03.369Z,13.20
2023-05-18T21:19:33.901Z,13.00
2023-05-18T21:22:16.207Z,12.90
2023-05-18T21:25:00.215Z,12.80
2023-05-18T21:28:05.979Z,12.90
2023-05-18T21:30:57.809Z,12.90
2023-05-18T21:33:48.771Z,12.90
2023-05-18T21:36:44.617Z,13.00
2023-05-18T21:39:25.178Z,13.10
2023-05-18T21:41:59.451Z,13.20
2023-05-18T21:44:45.683Z,13.20
2023-05-18T21:47:36.773Z,13.20
2023-05-18T21:50:21.432Z,13.20
2023-05-18T21:53:12.943Z,13.20
2023-05-18T21:56:14.396Z,13.20
2023-05-18T21:59:00.469Z,13.20
2023-05-18T22:01:48.348Z,13.20
2023-05-18T22:04:45.264Z,13.20
2023-05-18T22:07:41.259Z,13.20
2023-05-18T22:10:26.589Z,13.30
2023-05-18T22:13:02.274Z,13.30
2023-05-18T22:15:45.774Z,13.30
2023-05-18T22:18:27.960Z,13.30
2023-05-18T22:21:01.798Z,13.30
2023-05-18T22:23:47.114Z,13.40
2023-05-18T22:26:37.585Z,13.40
2023-05-18T22:29:21.291Z,13.40
2023-05-18T22:32:03.696Z,13.40
2023-05-18T22:34:49.082Z,13.40
2023-05-18T22:37:47.873Z,13.40
2023-05-18T22:40:18.730Z,13.40
2023-05-18T22:43:00.360Z,13.40
2023-05-18T22:45:40.835Z,13.50
2023-05-18T22:48:24.950Z,13.50
2023-05-18T22:51:01.158Z,13.50
2023-05-18T22:53:49.353Z,13.60
2023-05-18T22:56:28.186Z,13.60
2023-05-18T22:59:20.745Z,13.60
2023-05-18T23:02:24.445Z,13.70
2023-05-18T23:05:26.567Z,13.70
2023-05-18T23:08:03.053Z,13.80
2023-05-18T23:10:47.514Z,13.80
2023-05-18T23:13:31.344Z,13.90
2023-05-18T23:16:36.956Z,13.90
2023-05-18T23:19:26.284Z,14.00
2023-05-18T23:22:17.555Z,14.00
2023-05-18T23:25:05.925Z,14.00
2023-05-18T23:27:38.052Z,14.00
2023-05-18T23:30:24.797Z,14.00
2023-05-18T23:33:01.401Z,14.10
2023-05-18T23:35:34.226Z,14.10
2023-05-18T23:38:22.311Z,14.10
2023-05-18T23:40:57.816Z,14.10
2023-05-18T23:44:02.037Z,14.20
2023-05-18T23:46:37.446Z,14.20
2023-05-18T23:49:51.435Z,14.20
2023-05-18T23:52:28.185Z,14.20
2023-05-18T23:55:09.007Z,14.20
2023-05-18T23:58:05.499Z,14.20
